Home > Products > Valid Products > TAF

000
FTUS42 KILM 190900 AAA
TAFFLO
TAF AMD
KFLO 190930Z 1910/2006 05012G20KT P6SM VCSH OVC007
      TEMPO 1910/1913 -RA
     FM191500 04014G20KT P6SM SCT007 OVC015
     FM200000 03013KT P6SM -RA BKN007=



000
FTUS42 KILM 190900 AAA
TAFLBT
TAF AMD
KLBT 190927Z 1909/2006 05012G20KT P6SM VCSH OVC007
      TEMPO 1909/1913 4SM -RA BR
     FM191800 03014G20KT P6SM -RA SCT007 OVC015=



000
FTUS42 KILM 190500
TAFFLO
TAF
KFLO 190534Z 1906/2006 05012G21KT 3SM RA BR BKN007 OVC012
     FM191500 04014G20KT 6SM -RA SCT007 OVC015
     FM200000 03013KT P6SM -RA BKN007=



000
FTUS42 KILM 190500
TAFCRE
TAF
KCRE 190534Z 1906/2006 04013G22KT 3SM RA BR BKN007 OVC012
     FM191500 02012G18KT 6SM -RA BKN007 OVC015
     FM200000 04011KT P6SM -RA OVC007=



000
FTUS42 KILM 190500
TAFMYR
TAF
KMYR 190534Z 1906/2006 04013G23KT 3SM RA BR BKN007 OVC012
     FM191500 02014G20KT 6SM -RA BKN007 OVC015
     FM200000 03012KT P6SM -RA OVC007
      AMD LTD TO CLD VIS AND WIND TIL 191100=



000
FTUS42 KILM 190500
TAFLBT
TAF
KLBT 190534Z 1906/2006 05012G20KT 3SM RA BR BKN007 OVC015
     FM191800 03014G20KT P6SM -RA SCT007 OVC015=



000
FTUS42 KILM 190500
TAFILM
TAF
KILM 190534Z 1906/2006 03013G22KT 3SM RA BR BKN007 OVC012
     FM191800 02014G20KT 6SM -RA SCT007 OVC015
     FM200000 03013KT P6SM -RA OVC007=



000
FTUS42 KILM 190400 AAA
TAFLBT
TAF AMD
KLBT 190432Z 1905/1924 04011KT 4SM RA BR OVC007
     FM191800 03013G19KT P6SM SCT007 OVC015=



000
FTUS42 KILM 190300 AAA
TAFILM
TAF AMD
KILM 190345Z 1904/1924 04009KT 4SM RA BR BKN008 OVC015
     FM190800 03011KT 3SM RA BR OVC005
     FM191800 02013G20KT 6SM -RA BKN007 OVC015=



000
FTUS42 KILM 182300 CCA
TAFILM
TAF COR
KILM 182357Z 1900/1924 05008KT 5SM -RA OVC030
     FM190300 04009KT 4SM RA BR OVC015
     FM190500 03011KT 3SM RA BR OVC007
     FM191800 02013G20KT 6SM -RA BKN007 OVC015=



000
FTUS42 KILM 182300 CCA
TAFFLO
TAF COR
KFLO 182355Z 1900/1924 05007KT 4SM RA OVC020
      TEMPO 1901/1903 2SM RA BR BKN007 OVC015
     FM190300 04011KT 4SM RA BR OVC007
     FM191500 03014G20KT P6SM -RA SCT007 OVC015=



000
FTUS42 KILM 182300
TAFCRE
TAF
KCRE 182331Z 1900/1924 04010KT 5SM -RA OVC020
      TEMPO 1901/1904 3SM RA OVC015
     FM190400 05011KT 3SM RA BR OVC007
     FM191500 03012G18KT 6SM -RA BKN007 OVC015=



000
FTUS42 KILM 182300
TAFILM
TAF
KILM 182331Z 1900/1924 03008KT 6SM -RA OVC030
     FM190300 04009KT 4SM RA BR OVC015
     FM190500 03011KT 3SM RA BR OVC007
     FM191800 02013G20KT 6SM -RA BKN007 OVC015=



000
FTUS42 KILM 182300
TAFLBT
TAF
KLBT 182331Z 1900/1924 05007KT 6SM -RA OVC030
      TEMPO 1903/1906 4SM RA OVC015
     FM190600 04011KT 4SM RA BR OVC007
     FM191800 03013G19KT P6SM SCT007 OVC015=



000
FTUS42 KILM 182300
TAFMYR
TAF
KMYR 182331Z 1900/1924 05010KT 5SM -RA OVC020
      TEMPO 1901/1904 3SM RA OVC015
     FM190400 04011KT 3SM RA BR OVC007
     FM191500 02014G20KT 6SM -RA BKN007 OVC015
      AMD LTD TO CLD VIS AND WIND 1904/1911=



000
FTUS42 KILM 182300
TAFFLO
TAF
KFLO 182331Z 1900/1924 05007KT 4SM RA OVC020
      TEMPO 1901/1903 2SM RA OVC015
     FM190400 04011KT 4SM RA BR OVC007
     FM191500 03014G20KT P6SM -RA SCT007 OVC015=



000
FTUS42 KILM 181700
TAFFLO
TAF
KFLO 181722Z 1818/1918 03010KT P6SM VCSH SCT040 OVC080
     FM182200 04011KT 6SM -RA BKN030 OVC050
     FM190000 03012KT 3SM RA BR BKN025 OVC040
     FM190400 04011KT 4SM RA BR BKN006 OVC025=



000
FTUS42 KILM 181700
TAFMYR
TAF
KMYR 181722Z 1818/1918 02012KT P6SM VCSH SCT020 BKN035
      TEMPO 1818/1821 SCT010 BKN020
     FM182300 03010KT 6SM -RA BKN025 OVC040
     FM190100 04010KT 3SM RA BR BKN015 OVC030
     FM190300 04010KT 4SM RA BR BKN006 OVC020=



000
FTUS42 KILM 181700
TAFLBT
TAF
KLBT 181722Z 1818/1918 04007KT P6SM VCSH SCT035 BKN045
     FM190000 04010KT 6SM -RA SCT020 OVC040
     FM190200 03012KT 3SM RA BR BKN025 OVC050
     FM190600 04011KT 4SM RA BR BKN006 OVC025=



000
FTUS42 KILM 181700
TAFILM
TAF
KILM 181722Z 1818/1918 04013KT P6SM VCSH BKN040
      TEMPO 1818/1821 5SM -RA SCT015 BKN020
     FM190100 03010KT 6SM -RA BKN025 OVC050
     FM190300 03010KT 4SM RA BR BKN015 OVC030
     FM190500 04010KT 2SM RA BR BKN006 OVC020=



000
FTUS42 KILM 181700
TAFCRE
TAF
KCRE 181722Z 1818/1918 03012KT P6SM VCSH SCT025 BKN035
      TEMPO 1818/1821 3SM -RA SCT015 BKN020
     FM190000 03010KT 6SM -RA BKN025 OVC040
     FM190200 04012KT 3SM RA BR BKN015 OVC030
     FM190400 04011KT 4SM RA BR BKN006 OVC020=



000
FTUS42 KILM 181400 CCA
TAFCRE
TAF COR
KCRE 181458Z 1812/1912 03012KT P6SM FEW010 BKN060
      TEMPO 1815/1819 3SM -RA BKN025
     FM182100 04013KT 6SM -RA BKN025 OVC050
     FM190000 04012KT 4SM RA BR BKN015 OVC030
     FM190200 04011KT 2SM RA BR BKN006 OVC025=



000
FTUS42 KILM 181100
TAFFLO
TAF
KFLO 181121Z 1812/1912 04012KT P6SM BKN060 BKN140
     FM182000 04013KT 6SM -RA BKN030 OVC050
     FM182200 03012KT 4SM RA BR BKN025 OVC045
     FM190300 04011KT 2SM RA BR BKN006 OVC025=



000
FTUS42 KILM 181100
TAFILM
TAF
KILM 181121Z 1812/1912 02012KT P6SM SCT010 BKN060
      TEMPO 1816/1820 BKN025
     FM182300 04013KT 6SM -RA BKN030 OVC050
     FM190200 04012KT 4SM RA BR BKN015 OVC030
     FM190400 04011KT 2SM RA BR BKN006 OVC025=



000
FTUS42 KILM 181100
TAFCRE
TAF
KCRE 181121Z 1812/1912 03012KT P6SM FEW010 BKN060
      TEMPO 1816/1820 BKN025
     FM182100 04013KT 6SM -RA BKN025 OVC050
     FM190000 04012KT 4SM RA BR BKN015 OVC030
     FM190200 04011KT 2SM RA BR BKN006 OVC025=



000
FTUS42 KILM 181100
TAFLBT
TAF
KLBT 181121Z 1812/1912 04010KT P6SM BKN060 BKN140
     FM182200 04013KT 6SM -RA BKN030 OVC050
     FM190000 03012KT 4SM RA BR BKN025 OVC050
     FM190400 04011KT 2SM RA BR BKN006 OVC025=



000
FTUS42 KILM 181100
TAFMYR
TAF
KMYR 181121Z 1812/1912 02012KT P6SM FEW010 BKN060
      TEMPO 1816/1820 BKN025
     FM182100 04013KT 6SM -RA BKN025 OVC050
     FM190000 04012KT 4SM RA BR BKN015 OVC030
     FM190200 04011KT 2SM RA BR BKN006 OVC025=



000
FTUS42 KILM 180500
TAFMYR
TAF
KMYR 180520Z 1806/1906 04009G16KT P6SM SCT015 BKN150
     FM181300 04012KT P6SM SCT035 BKN250
     FM181600 03012G17KT P6SM SCT050 BKN100
     FM181900 04010G16KT P6SM VCSH BKN045
     FM182000 04011G17KT 6SM -RA BKN040
     FM182100 04010KT 5SM -RA BKN020
     FM182300 04011KT 4SM RA BR BKN008
      AMD LTD TO CLD VIS AND WIND TIL 181100=



000
FTUS42 KILM 180500
TAFFLO
TAF
KFLO 180520Z 1806/1906 06008KT P6SM SCT060 BKN250
     FM180900 04006KT P6SM BKN040
     FM181300 04012KT P6SM SCT035 BKN100
     FM181600 03012G17KT P6SM SCT050 BKN060
     FM181800 04010G16KT P6SM VCSH BKN040
     FM181900 04011G16KT 6SM -RA BKN025
     FM182100 04010KT 5SM -RA BKN015
     FM182300 04011KT 4SM RA BR BKN008=



000
FTUS42 KILM 180500
TAFCRE
TAF
KCRE 180520Z 1806/1906 04009KT P6SM SCT015 BKN150
     FM181300 04012KT P6SM SCT035 BKN250
     FM181600 03012G17KT P6SM SCT050 BKN100
     FM181900 04010G16KT P6SM VCSH BKN045
     FM182000 04011G17KT 6SM -RA BKN040
     FM182100 04010KT 5SM -RA BKN020
     FM182300 04011KT 4SM RA BR BKN008=



000
FTUS42 KILM 180500
TAFLBT
TAF
KLBT 180520Z 1806/1906 06010G15KT P6SM BKN250
     FM180800 05009KT P6SM SCT008 BKN050
     FM181300 04012KT P6SM SCT035 BKN200
     FM181900 03012G17KT P6SM SCT050 BKN100
     FM190000 02010G16KT 6SM -RA SCT030 BKN045
     FM190400 06012KT 4SM RA BR BKN014
     FM190500 06013G18KT 4SM RA BR BKN008=



000
FTUS42 KILM 180500
TAFILM
TAF
KILM 180520Z 1806/1906 04010G15KT P6SM BKN250
     FM180800 04009KT P6SM SCT008 BKN050
     FM181300 04012KT P6SM SCT035 BKN200
     FM181900 03012G17KT P6SM SCT050 BKN100
     FM182300 02010G16KT 6SM -RA SCT030 BKN045
     FM190300 06012KT 4SM RA BR BKN014
     FM190400 06013G18KT 4SM RA BR BKN008=



000
FTUS42 KILM 172300
TAFLBT
TAF
KLBT 172320Z 1800/1824 05007KT P6SM SCT060
     FM180700 04006KT P6SM SCT040
     FM181300 04012KT P6SM SCT035 BKN250
     FM181900 03012G17KT P6SM SCT050 BKN100
     FM182300 02010G16KT P6SM VCSH BKN045=



000
FTUS42 KILM 172300
TAFCRE
TAF
KCRE 172320Z 1800/1824 10008KT P6SM SCT060
     FM180700 04009KT P6SM SCT040
     FM181300 04012KT P6SM SCT035 BKN250
     FM181600 03012G17KT P6SM SCT050 BKN100
     FM181900 04010G16KT P6SM VCSH BKN045
     FM182000 04011G17KT 6SM -RA BKN040
     FM182100 04010KT 5SM -RA BKN020=



000
FTUS42 KILM 172300
TAFFLO
TAF
KFLO 172320Z 1800/1824 08008KT P6SM SCT060
     FM180700 04006KT P6SM SCT040
     FM181300 04012KT P6SM SCT035 BKN100
     FM181600 03012G17KT P6SM SCT050 BKN060
     FM181800 04010G16KT P6SM VCSH BKN040
     FM181900 04011G16KT 6SM -RA BKN025
     FM182100 04010KT 5SM -RA BKN015=



000
FTUS42 KILM 172300
TAFILM
TAF
KILM 172320Z 1800/1824 05010KT P6SM SCT060
     FM180700 04009KT P6SM SCT040
     FM181300 04012KT P6SM SCT035 BKN250
     FM181900 03012G17KT P6SM SCT050 BKN100
     FM182300 02010G16KT P6SM VCSH BKN045=



000
FTUS42 KILM 172300
TAFMYR
TAF
KMYR 172320Z 1800/1824 10008KT P6SM SCT060
     FM180700 04009KT P6SM SCT040
     FM181300 04012KT P6SM SCT035 BKN250
     FM181600 03012G17KT P6SM SCT050 BKN100
     FM181900 04010G16KT P6SM VCSH BKN045
     FM182000 04011G17KT 6SM -RA BKN040
     FM182100 04010KT 5SM -RA BKN020
      AMD LTD TO CLD VIS AND WIND 1804/1811=



000
FTUS42 KILM 171700
TAFMYR
TAF
KMYR 171722Z 1718/1818 01010KT P6SM SCT040
     FM180200 03009KT P6SM BKN030 BKN060
     FM180800 04010KT P6SM SCT009 BKN045
     FM181300 05012KT P6SM BKN035 BKN080=



000
FTUS42 KILM 171700
TAFFLO
TAF
KFLO 171722Z 1718/1818 02010KT P6SM SCT040
     FM180400 04008KT P6SM SCT025 BKN050
     FM181000 04010KT P6SM SCT006 SCT025 BKN045
     FM181300 05012KT P6SM BKN035 BKN080=



000
FTUS42 KILM 171700
TAFCRE
TAF
KCRE 171722Z 1718/1818 02010KT P6SM SCT040
     FM180200 03009KT P6SM BKN030 BKN060
     FM180800 04010KT P6SM SCT009 BKN045
     FM181300 05012KT P6SM BKN035 BKN080=



000
FTUS42 KILM 171700
TAFLBT
TAF
KLBT 171722Z 1718/1818 02010KT P6SM SCT040
     FM180300 04008KT P6SM SCT025 BKN050
     FM180900 04010KT P6SM SCT006 SCT025 BKN045
     FM181300 05012KT P6SM SCT035 BKN080=



000
FTUS42 KILM 171700
TAFILM
TAF
KILM 171722Z 1718/1818 02012KT P6SM SCT040
     FM172300 03010KT P6SM BKN035 BKN060
     FM180700 03011KT P6SM SCT009 BKN045
     FM181300 04012KT P6SM SCT035 BKN080=



000
FTUS42 KILM 171100
TAFFLO
TAF
KFLO 171127Z 1712/1812 05010G16KT P6SM SCT040
     FM180600 03009KT P6SM SCT008 BKN025=



000
FTUS42 KILM 171100
TAFMYR
TAF
KMYR 171127Z 1712/1812 04012G20KT P6SM SCT040
     FM180400 03010KT P6SM SCT009 BKN025=



000
FTUS42 KILM 171100
TAFILM
TAF
KILM 171127Z 1712/1812 04012G20KT P6SM SCT040
     FM180400 03010KT P6SM SCT009 BKN025=



000
FTUS42 KILM 171100
TAFCRE
TAF
KCRE 171127Z 1712/1812 05010G18KT P6SM SCT040
     FM180400 03010KT P6SM SCT009 BKN025=



000
FTUS42 KILM 171100
TAFLBT
TAF
KLBT 171127Z 1712/1812 05010G16KT P6SM SCT040
     FM180600 03009KT P6SM SCT008 BKN025=



000
FTUS42 KILM 170500
TAFMYR
TAF
KMYR 170523Z 1706/1806 03010KT P6SM SCT035
     FM171400 04014G20KT P6SM FEW020 SCT040
     FM171900 04013G19KT P6SM SCT020 BKN040
     FM180200 03010KT P6SM BKN020
      AMD LTD TO CLD VIS AND WIND TIL 171100=



000
FTUS42 KILM 170500
TAFFLO
TAF
KFLO 170523Z 1706/1806 04006KT P6SM SKC
     FM171300 04012G18KT P6SM SCT040
     FM180100 03010KT P6SM SCT025=



000
FTUS42 KILM 170500
TAFILM
TAF
KILM 170523Z 1706/1806 03008KT P6SM SCT035
     FM171400 04012G19KT P6SM FEW020 SCT040
     FM171800 05014G20KT P6SM SCT020 BKN040
     FM180200 03010KT P6SM BKN025=



000
FTUS42 KILM 170500
TAFLBT
TAF
KLBT 170523Z 1706/1806 06007KT P6SM SKC
     FM171300 05012G18KT P6SM SCT040
     FM180100 04010KT P6SM SCT025=



000
FTUS42 KILM 170500
TAFCRE
TAF
KCRE 170523Z 1706/1806 03006KT P6SM SCT035
     FM171400 05012G19KT P6SM FEW020 SCT040
     FM171900 05010G16KT P6SM SCT020 BKN040
     FM180200 04010KT P6SM BKN025=



000
FTUS42 KILM 162300
TAFLBT
TAF
KLBT 162323Z 1700/1724 06008KT P6SM SKC
     FM171300 05011G18KT P6SM SCT040=



000
FTUS42 KILM 162300
TAFILM
TAF
KILM 162323Z 1700/1724 08009KT P6SM SKC
     FM170600 02010KT P6SM FEW010 SCT030
     FM171400 05013G20KT P6SM SCT020 BKN040=



000
FTUS42 KILM 162300
TAFMYR
TAF
KMYR 162323Z 1700/1724 09010KT P6SM SKC
     FM170600 02012KT P6SM FEW010 SCT030
     FM171400 04013G20KT P6SM SCT020 BKN040
      AMD LTD TO CLD VIS AND WIND 1704/1711=



000
FTUS42 KILM 162300
TAFFLO
TAF
KFLO 162323Z 1700/1724 05008KT P6SM SKC
     FM171300 04011G18KT P6SM SCT040=



000
FTUS42 KILM 162300
TAFCRE
TAF
KCRE 162323Z 1700/1724 08009KT P6SM SKC
     FM170600 03011KT P6SM FEW010 SCT030
     FM171400 05012G19KT P6SM SCT020 BKN040=



000
FTUS42 KILM 161700
TAFMYR
TAF
KMYR 161721Z 1618/1718 03016G26KT P6SM SKC
     FM162300 04010KT P6SM SCT040
     FM170700 05011KT P6SM SCT010 BKN035
     FM171300 05012G18KT P6SM SCT020 BKN040=



000
FTUS42 KILM 161700
TAFLBT
TAF
KLBT 161721Z 1618/1718 04013G20KT P6SM SKC
     FM162100 04008KT P6SM FEW035
     FM171300 05011G17KT P6SM BKN050=



000
FTUS42 KILM 161700
TAFILM
TAF
KILM 161721Z 1618/1718 04014G22KT P6SM SKC
     FM162300 04012KT P6SM SCT040
     FM170700 05011KT P6SM SCT010 BKN035
     FM171300 04012G18KT P6SM SCT020 BKN040=



000
FTUS42 KILM 161700
TAFCRE
TAF
KCRE 161721Z 1618/1718 04008G19KT P6SM SKC
     FM162300 05007KT P6SM SCT040
     FM170700 05011KT P6SM SCT010 BKN035
     FM171300 05012G18KT P6SM SCT020 BKN040=



000
FTUS42 KILM 161700
TAFFLO
TAF
KFLO 161721Z 1618/1718 04012G20KT P6SM SKC
     FM162100 04008KT P6SM FEW035
     FM171300 05011G17KT P6SM BKN050=



000
FTUS42 KILM 161100 RRA
TAFCRE
TAF
KCRE 161142Z 1612/1712 35014G25KT P6SM SCT020 SCT060
     FM161300 03018G26KT P6SM SKC
     FM162300 04010KT P6SM SCT040=



000
FTUS42 KILM 161100 RRA
TAFLBT
TAF
KLBT 161142Z 1612/1712 36015G25KT P6SM FEW060
     FM161300 04016G26KT P6SM SKC
     FM162100 04008KT P6SM FEW035=



000
FTUS42 KILM 161100 RRA
TAFMYR
TAF
KMYR 161142Z 1612/1712 35014G25KT P6SM SCT020 SCT060
     FM161300 03018G26KT P6SM SKC
     FM162300 05008KT P6SM SCT040=



000
FTUS42 KILM 161100 RRA
TAFFLO
TAF
KFLO 161142Z 1612/1712 36014G25KT P6SM FEW060
     FM161300 04015G26KT P6SM SKC
     FM162100 04008KT P6SM FEW035=



000
FTUS42 KILM 161100 RRA
TAFILM
TAF
KILM 161142Z 1612/1712 35014G25KT P6SM SCT020 SCT060
     FM161300 03018G26KT P6SM SKC
     FM162300 04010KT P6SM SCT040=



    US Dept of Commerce
    National Oceanic and Atmospheric Administration
    National Weather Service
    1325 East West Highway
    Silver Spring, MD 20910
    Page Author: NWS Internet Services Team
Disclaimer
Information Quality
Credits
Glossary
Privacy Policy
Freedom of Information Act (FOIA)
About Us
Career Opportunities